Time;durP1;ratioP1;P1;durP2;ratioP2;P2;SDS_P1;SDS_P2;PMS_P1;PMS_P2;Temp;Humidity;BMP_temperature;BMP_pressure;BME280_temperature;BME280_humidity;BME280_pressure;Samples;Min_cycle;Max_cycle;Signal;HPM_P1;HPM_P2
2023/01/21 00:00:09;;;;;;;18.98;13.27;;;;;;;;;;4990098;28;20123;-77
2023/01/21 00:02:35;;;;;;;21.52;13.68;;;;;;;;;;4962449;28;20052;-77
2023/01/21 00:05:02;;;;;;;19.15;12.88;;;;;;;;;;4956391;28;20053;-78
2023/01/21 00:07:29;;;;;;;21.40;14.00;;;;;;;;;;4980728;28;20113;-78
2023/01/21 00:09:56;;;;;;;17.85;12.52;;;;;;;;;;4961357;28;20054;-78
2023/01/21 00:12:23;;;;;;;20.02;14.25;;;;;;;;;;4955736;28;20061;-77
2023/01/21 00:14:49;;;;;;;19.10;13.75;;;;;;;;;;4955070;28;20046;-78
2023/01/21 00:17:16;;;;;;;18.40;13.07;;;;;;;;;;5011956;28;20457;-78
2023/01/21 00:19:43;;;;;;;23.13;14.07;;;;;;;;;;4963702;28;20057;-78
2023/01/21 00:22:09;;;;;;;19.08;13.90;;;;;;;;;;4964324;28;20049;-78
2023/01/21 00:24:36;;;;;;;19.40;12.57;;;;;;;;;;4964707;28;20056;-78
2023/01/21 00:27:03;;;;;;;17.15;13.02;;;;;;;;;;4995698;28;20421;-78
2023/01/21 00:29:30;;;;;;;20.42;13.43;;;;;;;;;;4979899;28;20058;-78
2023/01/21 00:31:56;;;;;;;20.67;13.05;;;;;;;;;;4979977;28;20060;-78
2023/01/21 00:34:23;;;;;;;22.77;13.00;;;;;;;;;;4979548;28;20093;-77
2023/01/21 00:36:50;;;;;;;18.55;12.57;;;;;;;;;;4979617;28;20045;-77
2023/01/21 00:39:17;;;;;;;18.52;12.70;;;;;;;;;;4975903;28;20077;-77
2023/01/21 00:41:43;;;;;;;17.73;12.45;;;;;;;;;;4959761;28;20050;-77
2023/01/21 00:44:10;;;;;;;18.00;12.43;;;;;;;;;;4959645;28;20133;-77
2023/01/21 00:46:37;;;;;;;18.85;12.38;;;;;;;;;;4959265;28;20537;-76
2023/01/21 00:49:04;;;;;;;18.15;13.43;;;;;;;;;;4974947;28;20053;-76
2023/01/21 00:51:30;;;;;;;20.33;13.68;;;;;;;;;;4975008;28;20066;-77
2023/01/21 00:53:57;;;;;;;21.02;13.55;;;;;;;;;;4981122;28;20133;-77
2023/01/21 00:56:24;;;;;;;20.63;12.90;;;;;;;;;;4978363;28;20056;-77
2023/01/21 00:58:51;;;;;;;19.67;12.15;;;;;;;;;;4996950;28;20132;-77
2023/01/21 01:01:19;;;;;;;18.38;12.65;;;;;;;;;;4978286;28;20082;-76
2023/01/21 01:03:46;;;;;;;17.58;11.57;;;;;;;;;;4994623;28;20089;-77
2023/01/21 01:06:16;;;;;;;15.60;11.88;;;;;;;;;;4994746;28;20136;-77
2023/01/21 01:08:43;;;;;;;21.23;13.30;;;;;;;;;;4978735;28;20060;-76
2023/01/21 01:11:11;;;;;;;19.83;12.20;;;;;;;;;;4978690;28;20050;-77
2023/01/21 01:13:38;;;;;;;17.92;11.88;;;;;;;;;;4994370;28;20054;-78
2023/01/21 01:16:05;;;;;;;16.02;11.90;;;;;;;;;;4978484;28;20086;-77
2023/01/21 01:18:34;;;;;;;17.17;12.35;;;;;;;;;;5010529;28;20052;-78
2023/01/21 01:21:01;;;;;;;18.67;12.05;;;;;;;;;;4994149;28;20158;-77
2023/01/21 01:23:28;;;;;;;17.75;12.63;;;;;;;;;;4993906;28;20054;-78
2023/01/21 01:26:01;;;;;;;21.85;13.32;;;;;;;;;;4978629;28;20137;-77
2023/01/21 01:28:29;;;;;;;18.20;12.85;;;;;;;;;;4979611;28;20057;-77
2023/01/21 01:30:56;;;;;;;17.23;11.73;;;;;;;;;;4961881;28;20058;-77
2023/01/21 01:33:23;;;;;;;17.80;12.85;;;;;;;;;;4978706;28;20097;-76
2023/01/21 01:35:50;;;;;;;15.68;11.93;;;;;;;;;;4974143;28;20047;-76
2023/01/21 01:38:20;;;;;;;20.80;13.35;;;;;;;;;;4958111;28;20089;-76
2023/01/21 01:40:48;;;;;;;22.33;12.32;;;;;;;;;;4989800;28;20529;-76
2023/01/21 01:43:20;;;;;;;22.42;12.57;;;;;;;;;;4989914;28;20058;-76
2023/01/21 01:45:47;;;;;;;19.83;14.13;;;;;;;;;;4989464;28;20410;-78
2023/01/21 01:48:18;;;;;;;20.23;13.27;;;;;;;;;;4964203;28;20507;-77
2023/01/21 01:50:44;;;;;;;19.67;12.90;;;;;;;;;;4994555;28;20418;-77
2023/01/21 01:53:11;;;;;;;18.67;13.23;;;;;;;;;;4978173;28;20076;-77
2023/01/21 01:55:38;;;;;;;20.38;13.60;;;;;;;;;;4977889;28;20058;-77
2023/01/21 01:58:06;;;;;;;21.20;14.55;;;;;;;;;;4977774;28;20049;-77
2023/01/21 02:00:33;;;;;;;24.77;13.52;;;;;;;;;;4978087;28;20483;-76
2023/01/21 02:05:46;;;;;;;21.40;14.18;;;;;;;;;;4990618;28;20149;-77
2023/01/21 02:08:12;;;;;;;22.25;14.15;;;;;;;;;;4974299;28;20046;-77
2023/01/21 02:10:39;;;;;;;21.17;14.88;;;;;;;;;;4958278;28;20051;-77
2023/01/21 02:13:06;;;;;;;21.25;14.43;;;;;;;;;;4958527;28;20050;-78
2023/01/21 02:15:58;;;;;;;19.20;13.10;;;;;;;;;;4961026;28;20422;-76
2023/01/21 02:18:44;;;;;;;17.80;11.05;;;;;;;;;;4993058;28;20092;-77
2023/01/21 02:21:36;;;;;;;25.00;15.10;;;;;;;;;;5007978;28;20057;-77
2023/01/21 02:24:30;;;;;;;22.73;15.57;;;;;;;;;;4993106;28;20056;-76
2023/01/21 02:27:32;;;;;;;22.15;15.23;;;;;;;;;;4993030;28;20057;-77
2023/01/21 02:30:17;;;;;;;23.70;14.75;;;;;;;;;;5011579;28;20058;-77
2023/01/21 02:33:21;;;;;;;21.20;14.57;;;;;;;;;;5013256;28;20045;-77
2023/01/21 02:36:09;;;;;;;22.15;15.25;;;;;;;;;;5013428;28;20045;-76
2023/01/21 02:39:00;;;;;;;26.35;16.52;;;;;;;;;;5009262;28;20140;-77
2023/01/21 02:41:48;;;;;;;24.70;16.10;;;;;;;;;;4992899;28;20137;-77
2023/01/21 02:44:31;;;;;;;26.23;15.68;;;;;;;;;;4979098;28;20145;-77
2023/01/21 02:47:01;;;;;;;;;;;;;;;;;;4993703;28;20085;-77
2023/01/21 02:49:31;;;;;;;23.85;15.52;;;;;;;;;;4976880;28;19921;-77
2023/01/21 02:51:57;;;;;;;23.60;16.38;;;;;;;;;;4992781;28;20149;-77
2023/01/21 02:54:38;;;;;;;23.35;15.10;;;;;;;;;;5010112;28;20517;-78
2023/01/21 02:57:10;;;;;;;26.08;17.35;;;;;;;;;;4989953;28;20049;-77
2023/01/21 02:59:37;;;;;;;24.00;17.17;;;;;;;;;;4942450;28;20443;-76
2023/01/21 03:02:43;;;;;;;20.48;15.35;;;;;;;;;;4946848;28;20053;-77
2023/01/21 03:05:22;;;;;;;24.63;16.75;;;;;;;;;;4983395;28;20050;-78
2023/01/21 03:08:00;;;;;;;24.38;16.05;;;;;;;;;;4977395;28;20057;-79
2023/01/21 03:10:41;;;;;;;24.40;15.32;;;;;;;;;;4977369;28;20495;-78
2023/01/21 03:16:55;;;;;;;26.77;15.93;;;;;;;;;;4973074;28;20054;-77
2023/01/21 03:18:49;;;;;;;26.00;17.63;;;;;;;;;;4976258;28;20503;-76
2023/01/21 03:21:18;;;;;;;24.20;15.75;;;;;;;;;;4973637;28;20051;-77
2023/01/21 03:23:47;;;;;;;24.00;15.35;;;;;;;;;;4990509;28;20507;-76
2023/01/21 03:26:15;;;;;;;23.92;16.10;;;;;;;;;;4960855;28;20049;-76
2023/01/21 03:28:44;;;;;;;23.83;16.50;;;;;;;;;;4960879;28;20077;-76
2023/01/21 03:31:15;;;;;;;23.67;16.67;;;;;;;;;;4960810;28;20052;-76
2023/01/21 03:33:44;;;;;;;20.40;15.30;;;;;;;;;;4960993;28;20510;-76
2023/01/21 03:36:25;;;;;;;23.52;15.77;;;;;;;;;;4961676;28;20045;-76
2023/01/21 03:38:52;;;;;;;29.15;17.60;;;;;;;;;;4961630;28;20424;-77
2023/01/21 03:41:21;;;;;;;28.30;16.98;;;;;;;;;;4962274;28;20332;-78
2023/01/21 03:43:48;;;;;;;23.77;15.32;;;;;;;;;;4961919;28;20088;-77
2023/01/21 03:46:17;;;;;;;22.65;16.30;;;;;;;;;;4962410;28;20441;-78
2023/01/21 03:48:49;;;;;;;25.48;16.40;;;;;;;;;;4977042;28;20050;-77
2023/01/21 03:51:19;;;;;;;25.70;16.33;;;;;;;;;;4960708;28;20052;-77
2023/01/21 03:53:59;;;;;;;27.60;16.80;;;;;;;;;;4961038;28;20050;-77
2023/01/21 03:56:26;;;;;;;24.23;15.18;;;;;;;;;;4964703;28;20060;-76
2023/01/21 03:58:53;;;;;;;24.92;16.08;;;;;;;;;;4965212;28;20056;-78
2023/01/21 04:01:20;;;;;;;24.17;17.15;;;;;;;;;;4965716;28;20422;-77
2023/01/21 04:03:47;;;;;;;24.45;16.80;;;;;;;;;;4964123;28;20054;-77
2023/01/21 04:06:15;;;;;;;26.70;16.33;;;;;;;;;;4964200;28;20057;-77
2023/01/21 04:08:42;;;;;;;23.80;16.30;;;;;;;;;;4963684;28;20053;-77
2023/01/21 04:11:09;;;;;;;21.90;15.82;;;;;;;;;;4980843;28;20422;-77
2023/01/21 04:13:36;;;;;;;26.92;16.83;;;;;;;;;;4964526;28;20052;-78
2023/01/21 04:16:03;;;;;;;28.98;15.98;;;;;;;;;;4963882;28;20712;-77
2023/01/21 04:18:30;;;;;;;27.52;16.95;;;;;;;;;;4964074;28;20502;-77
2023/01/21 04:20:56;;;;;;;24.13;16.40;;;;;;;;;;4964426;28;20064;-78
2023/01/21 04:23:23;;;;;;;26.50;16.52;;;;;;;;;;4964014;28;20065;-77
2023/01/21 04:25:51;;;;;;;25.20;16.38;;;;;;;;;;4965366;28;20745;-77
2023/01/21 04:28:18;;;;;;;25.58;17.75;;;;;;;;;;4963925;28;20052;-77
2023/01/21 04:30:48;;;;;;;25.92;17.20;;;;;;;;;;4963543;28;20133;-77
2023/01/21 04:33:15;;;;;;;23.42;16.77;;;;;;;;;;4963488;28;20068;-77
2023/01/21 04:35:41;;;;;;;25.40;16.67;;;;;;;;;;4963576;28;20049;-77
2023/01/21 04:38:08;;;;;;;23.55;15.40;;;;;;;;;;4963128;28;20054;-77
2023/01/21 04:40:35;;;;;;;22.95;15.68;;;;;;;;;;4963186;28;20132;-77
2023/01/21 04:43:02;;;;;;;24.42;17.02;;;;;;;;;;4995700;28;20104;-77
2023/01/21 04:45:29;;;;;;;23.80;16.42;;;;;;;;;;4963177;28;20081;-77
2023/01/21 04:47:55;;;;;;;25.88;16.65;;;;;;;;;;4964322;28;20042;-78
2023/01/21 04:50:22;;;;;;;25.73;16.13;;;;;;;;;;4963831;28;20058;-78
2023/01/21 04:52:49;;;;;;;26.58;16.17;;;;;;;;;;4964520;28;20454;-77
2023/01/21 04:55:16;;;;;;;27.23;17.77;;;;;;;;;;4964126;28;20050;-77
2023/01/21 04:57:42;;;;;;;24.70;17.10;;;;;;;;;;4964161;28;20046;-78
2023/01/21 05:00:09;;;;;;;28.63;16.98;;;;;;;;;;4964191;28;20050;-77
2023/01/21 05:02:36;;;;;;;21.55;15.63;;;;;;;;;;4964741;28;20054;-79
2023/01/21 05:05:03;;;;;;;25.30;16.77;;;;;;;;;;4964437;28;20061;-77
2023/01/21 05:07:30;;;;;;;28.25;16.83;;;;;;;;;;4964225;28;20046;-78
2023/01/21 05:09:57;;;;;;;22.90;16.38;;;;;;;;;;4980445;28;20694;-78
2023/01/21 05:12:24;;;;;;;22.23;16.23;;;;;;;;;;4963764;28;20064;-77
2023/01/21 05:14:56;;;;;;;25.98;17.27;;;;;;;;;;4963480;28;20120;-77
2023/01/21 05:17:23;;;;;;;18.90;13.60;;;;;;;;;;4960887;28;20068;-77
2023/01/21 05:19:51;;;;;;;26.15;17.30;;;;;;;;;;4995659;28;20054;-78
2023/01/21 05:22:18;;;;;;;26.63;16.25;;;;;;;;;;4963428;28;20522;-78
2023/01/21 05:24:44;;;;;;;23.00;16.73;;;;;;;;;;4963246;28;20061;-78
2023/01/21 05:27:11;;;;;;;24.30;17.10;;;;;;;;;;4963122;28;20045;-78
2023/01/21 05:29:39;;;;;;;27.13;17.23;;;;;;;;;;4962772;28;20058;-78
2023/01/21 05:32:05;;;;;;;27.60;18.52;;;;;;;;;;4963399;28;20053;-78
2023/01/21 05:34:32;;;;;;;28.17;19.35;;;;;;;;;;4963396;28;20068;-77
2023/01/21 05:36:59;;;;;;;30.80;18.50;;;;;;;;;;4963283;28;20057;-77
2023/01/21 05:39:26;;;;;;;29.23;20.00;;;;;;;;;;5008567;28;20050;-78
2023/01/21 05:41:52;;;;;;;27.13;19.17;;;;;;;;;;4963001;28;20054;-78
2023/01/21 05:44:19;;;;;;;29.02;19.45;;;;;;;;;;4962642;28;20062;-78
2023/01/21 05:46:46;;;;;;;33.05;20.63;;;;;;;;;;4962824;28;20073;-78
2023/01/21 05:49:13;;;;;;;34.03;21.95;;;;;;;;;;4977955;28;20530;-77
2023/01/21 05:51:39;;;;;;;30.40;20.42;;;;;;;;;;4977949;28;20046;-78
2023/01/21 05:54:06;;;;;;;30.75;20.55;;;;;;;;;;4962253;28;20049;-77
2023/01/21 05:56:33;;;;;;;33.45;21.95;;;;;;;;;;4978058;28;20066;-81
2023/01/21 05:59:00;;;;;;;32.55;21.27;;;;;;;;;;4961472;28;20050;-80
2023/01/21 06:01:27;;;;;;;30.38;20.33;;;;;;;;;;4962574;28;20046;-80
2023/01/21 06:03:54;;;;;;;29.45;18.92;;;;;;;;;;4960504;28;20537;-80
2023/01/21 06:06:21;;;;;;;29.02;19.50;;;;;;;;;;4961893;28;20101;-78
2023/01/21 06:08:47;;;;;;;28.85;18.08;;;;;;;;;;4961531;28;20173;-78
2023/01/21 06:11:14;;;;;;;29.67;19.00;;;;;;;;;;4974442;28;20038;-79
2023/01/21 06:13:41;;;;;;;32.72;20.27;;;;;;;;;;4958814;28;20060;-79
2023/01/21 06:16:08;;;;;;;36.30;21.83;;;;;;;;;;4958738;28;20058;-79
2023/01/21 06:18:35;;;;;;;35.45;22.25;;;;;;;;;;4974572;28;20054;-79
2023/01/21 06:21:02;;;;;;;36.97;22.38;;;;;;;;;;4991473;28;20419;-79
2023/01/21 06:23:29;;;;;;;38.80;23.45;;;;;;;;;;5013514;28;20104;-78
2023/01/21 06:26:03;;;;;;;37.47;22.83;;;;;;;;;;4961906;28;20414;-78
2023/01/21 06:28:34;;;;;;;43.88;23.92;;;;;;;;;;4978749;28;20058;-80
2023/01/21 06:31:00;;;;;;;39.45;25.80;;;;;;;;;;5010784;28;20054;-79
2023/01/21 06:33:27;;;;;;;43.90;24.95;;;;;;;;;;4978486;28;20418;-79
2023/01/21 06:35:55;;;;;;;50.70;27.83;;;;;;;;;;4978606;28;20519;-79
2023/01/21 06:38:22;;;;;;;49.05;26.05;;;;;;;;;;4978314;28;20056;-80
2023/01/21 06:40:49;;;;;;;49.75;26.92;;;;;;;;;;4978487;28;20437;-79
2023/01/21 06:43:15;;;;;;;49.15;28.88;;;;;;;;;;4977349;28;20053;-78
2023/01/21 06:45:43;;;;;;;48.45;27.60;;;;;;;;;;4978451;28;20049;-79
2023/01/21 06:48:09;;;;;;;55.92;28.55;;;;;;;;;;4979888;28;20550;-79
2023/01/21 06:50:36;;;;;;;46.55;27.30;;;;;;;;;;4978826;28;20056;-79
2023/01/21 06:53:03;;;;;;;42.83;24.73;;;;;;;;;;4978659;28;20057;-78
2023/01/21 06:55:30;;;;;;;49.28;26.10;;;;;;;;;;4978604;28;20064;-78
2023/01/21 06:57:57;;;;;;;41.28;23.92;;;;;;;;;;4977555;28;20499;-79
2023/01/21 07:00:24;;;;;;;39.83;24.75;;;;;;;;;;4968790;28;20058;-79
2023/01/21 07:02:57;;;;;;;43.33;24.23;;;;;;;;;;4994184;28;20060;-79
2023/01/21 07:05:24;;;;;;;46.38;27.05;;;;;;;;;;4978124;28;20050;-78
2023/01/21 07:07:55;;;;;;;42.85;24.98;;;;;;;;;;4958738;28;20046;-78
2023/01/21 07:10:23;;;;;;;41.35;24.17;;;;;;;;;;4965640;28;20054;-77
2023/01/21 07:12:50;;;;;;;39.05;22.50;;;;;;;;;;4951276;28;20053;-78
2023/01/21 07:15:17;;;;;;;35.75;22.45;;;;;;;;;;4966526;28;20055;-80
2023/01/21 07:17:44;;;;;;;32.88;20.00;;;;;;;;;;4945453;28;20042;-79
2023/01/21 07:20:11;;;;;;;32.22;20.52;;;;;;;;;;5009986;28;20053;-78
2023/01/21 07:22:38;;;;;;;30.48;18.48;;;;;;;;;;4977125;28;20068;-77
2023/01/21 07:25:05;;;;;;;34.00;19.95;;;;;;;;;;4978153;28;20058;-79
2023/01/21 07:27:32;;;;;;;27.83;18.40;;;;;;;;;;4980469;28;20467;-79
2023/01/21 07:29:59;;;;;;;34.00;19.33;;;;;;;;;;4984118;28;20053;-82
2023/01/21 07:32:26;;;;;;;30.95;19.23;;;;;;;;;;4966461;28;20058;-80
2023/01/21 07:34:53;;;;;;;34.28;20.75;;;;;;;;;;4981352;28;20871;-80
2023/01/21 07:37:19;;;;;;;32.08;20.73;;;;;;;;;;4965207;28;20049;-80
2023/01/21 07:39:46;;;;;;;30.88;20.65;;;;;;;;;;4991424;28;20523;-80
2023/01/21 07:42:13;;;;;;;35.70;21.17;;;;;;;;;;4961425;28;20112;-79
2023/01/21 07:44:40;;;;;;;32.20;20.17;;;;;;;;;;4961450;28;20155;-79
2023/01/21 07:47:06;;;;;;;33.47;21.15;;;;;;;;;;4960953;28;20057;-79
2023/01/21 07:49:33;;;;;;;34.90;20.85;;;;;;;;;;4963909;28;20068;-78
2023/01/21 07:52:00;;;;;;;35.28;21.73;;;;;;;;;;4997008;28;20050;-80
2023/01/21 07:54:27;;;;;;;39.88;23.15;;;;;;;;;;4997145;28;20054;-79
2023/01/21 07:56:53;;;;;;;41.55;25.30;;;;;;;;;;4981232;28;20058;-79
2023/01/21 07:59:20;;;;;;;38.30;23.58;;;;;;;;;;4997728;28;20056;-80
2023/01/21 08:01:47;;;;;;;37.53;23.08;;;;;;;;;;4954530;28;20054;-79
2023/01/21 08:04:15;;;;;;;36.35;22.90;;;;;;;;;;4952678;28;20080;-79
2023/01/21 08:06:41;;;;;;;36.10;21.55;;;;;;;;;;4950857;28;20074;-81
2023/01/21 08:09:09;;;;;;;36.78;23.23;;;;;;;;;;4979534;28;20128;-79
2023/01/21 08:11:36;;;;;;;36.13;22.20;;;;;;;;;;4969591;28;20108;-78
2023/01/21 08:14:02;;;;;;;40.95;23.73;;;;;;;;;;4968838;28;20132;-79
2023/01/21 08:16:29;;;;;;;37.65;22.00;;;;;;;;;;5001158;28;20549;-79
2023/01/21 08:18:56;;;;;;;38.95;22.50;;;;;;;;;;4974524;28;20103;-79
2023/01/21 08:21:23;;;;;;;38.70;23.70;;;;;;;;;;4981186;28;20050;-78
2023/01/21 08:23:49;;;;;;;51.25;28.60;;;;;;;;;;4985855;28;20708;-78
2023/01/21 08:26:16;;;;;;;41.13;22.70;;;;;;;;;;4977503;28;20046;-79
2023/01/21 08:28:43;;;;;;;34.30;20.73;;;;;;;;;;4964185;28;20057;-82
2023/01/21 08:31:11;;;;;;;37.97;22.58;;;;;;;;;;4953875;28;20090;-80
2023/01/21 08:33:38;;;;;;;35.10;22.58;;;;;;;;;;4967951;28;20054;-80
2023/01/21 08:36:06;;;;;;;35.08;20.95;;;;;;;;;;4949439;28;20046;-78
2023/01/21 08:38:33;;;;;;;35.45;20.63;;;;;;;;;;4955038;28;20421;-80
2023/01/21 08:41:00;;;;;;;37.80;22.80;;;;;;;;;;4967175;28;20580;-79
2023/01/21 08:43:27;;;;;;;32.17;19.80;;;;;;;;;;4971314;28;20049;-81
2023/01/21 08:45:55;;;;;;;32.05;19.70;;;;;;;;;;4969891;28;20085;-83
2023/01/21 08:48:22;;;;;;;34.28;20.67;;;;;;;;;;4988662;28;20239;-81
2023/01/21 08:50:49;;;;;;;35.17;20.02;;;;;;;;;;5003001;28;20069;-81
2023/01/21 08:53:16;;;;;;;33.70;20.45;;;;;;;;;;4997558;28;20089;-80
2023/01/21 08:55:43;;;;;;;32.05;19.27;;;;;;;;;;4997145;28;20058;-81
2023/01/21 08:58:10;;;;;;;34.75;20.88;;;;;;;;;;4968714;28;20061;-81
2023/01/21 09:00:36;;;;;;;30.40;18.38;;;;;;;;;;4966118;28;20047;-80
2023/01/21 09:03:03;;;;;;;30.83;18.95;;;;;;;;;;4964988;28;20081;-80
2023/01/21 09:05:30;;;;;;;33.92;19.70;;;;;;;;;;4966127;28;20069;-81
2023/01/21 09:07:57;;;;;;;31.75;18.67;;;;;;;;;;4965475;28;20046;-80
2023/01/21 09:13:10;;;;;;;32.05;18.73;;;;;;;;;;4987771;28;20053;-84
2023/01/21 09:15:38;;;;;;;31.92;18.38;;;;;;;;;;4968396;28;20050;-82
2023/01/21 09:18:05;;;;;;;31.80;19.55;;;;;;;;;;4985084;28;20046;-82
2023/01/21 09:20:32;;;;;;;33.00;19.63;;;;;;;;;;4969789;28;20056;-83
2023/01/21 09:22:59;;;;;;;30.40;17.75;;;;;;;;;;4971831;28;20265;-83
2023/01/21 09:25:26;;;;;;;27.70;17.83;;;;;;;;;;4963115;28;20049;-83
2023/01/21 09:27:53;;;;;;;30.25;18.42;;;;;;;;;;4982468;28;20050;-83
2023/01/21 09:30:20;;;;;;;33.13;20.20;;;;;;;;;;4952255;28;20095;-82
2023/01/21 09:32:47;;;;;;;29.15;20.70;;;;;;;;;;4952778;28;20049;-82
2023/01/21 09:35:14;;;;;;;30.15;19.85;;;;;;;;;;4965994;28;20051;-77
2023/01/21 09:37:41;;;;;;;32.15;19.83;;;;;;;;;;4949367;28;20053;-76
2023/01/21 09:40:13;;;;;;;36.70;19.42;;;;;;;;;;4979959;28;20057;-82
2023/01/21 09:42:41;;;;;;;31.60;21.45;;;;;;;;;;5009308;28;20058;-81
2023/01/21 09:45:08;;;;;;;28.08;18.55;;;;;;;;;;4955776;28;20088;-81
2023/01/21 09:47:39;;;;;;;29.63;16.70;;;;;;;;;;4949445;28;20078;-81
2023/01/21 09:50:16;;;;;;;25.58;15.55;;;;;;;;;;4949403;28;20050;-82
2023/01/21 09:52:46;;;;;;;27.83;16.77;;;;;;;;;;4949919;28;20093;-81
2023/01/21 09:55:18;;;;;;;27.65;16.20;;;;;;;;;;4996065;28;20066;-81
2023/01/21 09:58:10;;;;;;;25.50;14.00;;;;;;;;;;5015908;28;20050;-82
2023/01/21 10:01:17;;;;;;;27.23;16.58;;;;;;;;;;5017695;28;20421;-82
2023/01/21 10:04:00;;;;;;;26.70;16.85;;;;;;;;;;4983175;28;20049;-82
2023/01/21 10:06:37;;;;;;;28.27;17.35;;;;;;;;;;4984270;28;20046;-81
2023/01/21 10:09:13;;;;;;;28.63;17.05;;;;;;;;;;4995708;28;20046;-82
2023/01/21 10:12:01;;;;;;;25.90;16.25;;;;;;;;;;5011853;28;20054;-82
2023/01/21 10:15:13;;;;;;;28.73;16.90;;;;;;;;;;5008546;28;20060;-80
2023/01/21 10:17:50;;;;;;;24.40;15.07;;;;;;;;;;4999805;28;20092;-81
2023/01/21 10:20:25;;;;;;;25.45;14.70;;;;;;;;;;5004694;28;20414;-82
2023/01/21 10:23:21;;;;;;;26.50;14.75;;;;;;;;;;4984268;28;20104;-81
2023/01/21 10:25:48;;;;;;;27.23;16.80;;;;;;;;;;4978273;28;20053;-81
2023/01/21 10:28:22;;;;;;;25.73;16.00;;;;;;;;;;4972780;28;20073;-81
2023/01/21 10:30:51;;;;;;;27.40;17.00;;;;;;;;;;4972953;28;20058;-81
2023/01/21 10:33:23;;;;;;;30.23;16.33;;;;;;;;;;4983126;28;20088;-81
2023/01/21 10:36:02;;;;;;;27.38;16.58;;;;;;;;;;4975377;28;20128;-81
2023/01/21 10:38:51;;;;;;;32.35;18.05;;;;;;;;;;5002573;28;20092;-81
2023/01/21 10:41:37;;;;;;;28.63;17.25;;;;;;;;;;5000364;28;20568;-79
2023/01/21 10:44:12;;;;;;;27.98;16.25;;;;;;;;;;4999738;28;20045;-81
2023/01/21 10:46:48;;;;;;;26.00;14.98;;;;;;;;;;4988435;28;20054;-80
2023/01/21 10:49:52;;;;;;;24.25;14.25;;;;;;;;;;4984268;28;20042;-81
2023/01/21 10:52:44;;;;;;;28.45;16.30;;;;;;;;;;5006366;28;20133;-81
2023/01/21 10:55:45;;;;;;;28.98;15.13;;;;;;;;;;4998460;28;20038;-80
2023/01/21 10:58:24;;;;;;;39.20;21.20;;;;;;;;;;4966119;28;20094;-81
2023/01/21 11:00:51;;;;;;;47.75;25.08;;;;;;;;;;4983720;28;20050;-81
2023/01/21 11:03:22;;;;;;;29.13;17.60;;;;;;;;;;4973431;28;20045;-80
2023/01/21 11:05:49;;;;;;;27.90;17.30;;;;;;;;;;4992475;28;20516;-81
2023/01/21 11:08:19;;;;;;;43.97;22.45;;;;;;;;;;4971314;28;20076;-80
2023/01/21 11:10:46;;;;;;;34.03;20.45;;;;;;;;;;4979590;28;20057;-81
2023/01/21 11:13:13;;;;;;;26.38;17.08;;;;;;;;;;4965957;28;20054;-82
2023/01/21 11:15:52;;;;;;;28.02;16.65;;;;;;;;;;4974546;28;20049;-81
2023/01/21 11:18:30;;;;;;;30.52;15.95;;;;;;;;;;4975669;28;20046;-81
2023/01/21 11:21:21;;;;;;;26.13;16.02;;;;;;;;;;4968766;28;20084;-81
2023/01/21 11:23:59;;;;;;;24.63;15.38;;;;;;;;;;4975985;28;20072;-81
2023/01/21 11:26:29;;;;;;;21.90;14.40;;;;;;;;;;4961559;28;20050;-82
2023/01/21 11:29:07;;;;;;;21.90;13.43;;;;;;;;;;4974647;28;20085;-82
2023/01/21 11:31:34;;;;;;;24.13;13.88;;;;;;;;;;4974056;28;20169;-81
2023/01/21 11:34:18;;;;;;;25.83;15.35;;;;;;;;;;4972439;28;20064;-82
2023/01/21 11:37:03;;;;;;;19.65;13.02;;;;;;;;;;4967616;28;20128;-81
2023/01/21 11:39:33;;;;;;;24.73;14.10;;;;;;;;;;4979358;28;20045;-81
2023/01/21 11:42:13;;;;;;;23.23;14.05;;;;;;;;;;4988865;28;20056;-80
2023/01/21 11:45:00;;;;;;;23.27;14.20;;;;;;;;;;4976396;28;20049;-81
2023/01/21 11:47:29;;;;;;;25.17;14.13;;;;;;;;;;4970050;28;20077;-81
2023/01/21 11:50:02;;;;;;;24.65;14.40;;;;;;;;;;4973210;28;20046;-81
2023/01/21 11:52:28;;;;;;;;;;;;;;;;;;4968930;28;20076;-81
2023/01/21 11:54:55;;;;;;;23.52;15.13;;;;;;;;;;5005326;28;20297;-81
2023/01/21 11:57:28;;;;;;;25.65;15.07;;;;;;;;;;4964624;28;20057;-80
2023/01/21 11:59:57;;;;;;;23.45;13.82;;;;;;;;;;4970269;28;20038;-82
2023/01/21 12:02:30;;;;;;;23.38;13.65;;;;;;;;;;4971650;28;20061;-80
2023/01/21 12:05:01;;;;;;;;;;;;;;;;;;4981938;28;20068;-81
2023/01/21 12:07:33;;;;;;;26.67;14.55;;;;;;;;;;4995749;28;19925;-82
2023/01/21 12:10:03;;;;;;;21.73;14.07;;;;;;;;;;4977150;28;20046;-82
2023/01/21 12:12:44;;;;;;;21.58;13.70;;;;;;;;;;4999544;28;21101;-82
2023/01/21 12:15:22;;;;;;;25.98;15.38;;;;;;;;;;4972524;28;20050;-81
2023/01/21 12:17:57;;;;;;;28.80;15.68;;;;;;;;;;5020344;28;20053;-80
2023/01/21 12:20:43;;;;;;;24.88;14.85;;;;;;;;;;4996141;28;20041;-81
2023/01/21 12:23:39;;;;;;;28.15;15.05;;;;;;;;;;4973227;28;20055;-83
2023/01/21 12:26:30;;;;;;;28.77;15.35;;;;;;;;;;4988862;28;20050;-79
2023/01/21 12:29:37;;;;;;;26.63;15.30;;;;;;;;;;5008480;28;20065;-80
2023/01/21 12:32:12;;;;;;;23.05;13.40;;;;;;;;;;5004945;28;20054;-81
2023/01/21 12:34:57;;;;;;;21.48;14.23;;;;;;;;;;4973080;28;20057;-80
2023/01/21 12:37:28;;;;;;;25.83;12.70;;;;;;;;;;5005637;28;20050;-80
2023/01/21 12:39:56;;;;;;;24.50;14.13;;;;;;;;;;4969451;28;20045;-80
2023/01/21 12:42:28;;;;;;;21.38;13.48;;;;;;;;;;4966580;28;20058;-79
2023/01/21 12:44:59;;;;;;;24.92;15.18;;;;;;;;;;4973259;28;20077;-79
2023/01/21 12:47:33;;;;;;;25.67;15.02;;;;;;;;;;4969510;28;20050;-80
2023/01/21 12:50:19;;;;;;;22.95;13.80;;;;;;;;;;4979254;28;20525;-83
2023/01/21 12:53:08;;;;;;;24.23;14.13;;;;;;;;;;4996728;28;20125;-80
2023/01/21 12:55:38;;;;;;;23.33;14.40;;;;;;;;;;5001161;28;20045;-81
2023/01/21 12:58:10;;;;;;;28.30;15.57;;;;;;;;;;5006384;28;20132;-80
2023/01/21 13:00:39;;;;;;;23.20;14.20;;;;;;;;;;4968461;28;20064;-80
2023/01/21 13:03:14;;;;;;;32.15;16.48;;;;;;;;;;4976884;28;20105;-81
2023/01/21 13:06:27;;;;;;;29.80;15.10;;;;;;;;;;4985020;28;20057;-81
2023/01/21 13:09:19;;;;;;;26.80;16.00;;;;;;;;;;5001964;28;20078;-80
2023/01/21 13:11:51;;;;;;;27.10;14.90;;;;;;;;;;4985754;28;20549;-80
2023/01/21 13:14:28;;;;;;;26.63;14.93;;;;;;;;;;4968966;28;20069;-80
2023/01/21 13:17:00;;;;;;;25.58;15.32;;;;;;;;;;4976211;28;20056;-80
2023/01/21 13:19:27;;;;;;;28.98;16.30;;;;;;;;;;4985701;28;20046;-81
2023/01/21 13:22:05;;;;;;;26.33;15.07;;;;;;;;;;4987444;28;20049;-79
2023/01/21 13:25:16;;;;;;;25.95;15.25;;;;;;;;;;5001319;28;20049;-77
2023/01/21 13:28:18;;;;;;;23.70;14.43;;;;;;;;;;4997603;28;20342;-82
2023/01/21 13:30:51;;;;;;;25.65;14.98;;;;;;;;;;4975093;28;20141;-82
2023/01/21 13:33:25;;;;;;;;;;;;;;;;;;4983336;28;20077;-82
2023/01/21 13:36:14;;;;;;;25.40;14.85;;;;;;;;;;4984836;28;20028;-82
2023/01/21 13:38:46;;;;;;;25.08;14.85;;;;;;;;;;5001787;28;20042;-80
2023/01/21 13:41:29;;;;;;;23.77;14.68;;;;;;;;;;4984661;28;20049;-80
2023/01/21 13:44:14;;;;;;;25.70;14.77;;;;;;;;;;4998851;28;20049;-81
2023/01/21 13:46:58;;;;;;;24.90;13.68;;;;;;;;;;4999281;28;20045;-80
2023/01/21 13:50:06;;;;;;;27.65;16.02;;;;;;;;;;4996557;28;20041;-80
2023/01/21 13:52:49;;;;;;;25.17;14.95;;;;;;;;;;4987324;28;20057;-81
2023/01/21 13:55:19;;;;;;;23.92;13.55;;;;;;;;;;5015029;28;20504;-81
2023/01/21 13:58:04;;;;;;;24.83;14.90;;;;;;;;;;5000684;28;20129;-80
2023/01/21 14:01:02;;;;;;;26.75;15.00;;;;;;;;;;4947543;28;20050;-80
2023/01/21 14:03:49;;;;;;;25.65;14.20;;;;;;;;;;4960767;28;20116;-80
2023/01/21 14:06:23;;;;;;;27.55;14.25;;;;;;;;;;4947119;28;20069;-79
2023/01/21 14:09:11;;;;;;;23.50;13.48;;;;;;;;;;4978452;28;20112;-80
2023/01/21 14:11:48;;;;;;;22.65;14.45;;;;;;;;;;4994152;28;20055;-80
2023/01/21 14:14:38;;;;;;;24.35;14.98;;;;;;;;;;4960292;28;20074;-79
2023/01/21 14:17:27;;;;;;;24.75;13.95;;;;;;;;;;4974411;28;20101;-80
2023/01/21 14:20:12;;;;;;;22.85;13.38;;;;;;;;;;4993647;28;20485;-82
2023/01/21 14:22:51;;;;;;;25.27;15.05;;;;;;;;;;4992267;28;20061;-80
2023/01/21 14:25:39;;;;;;;21.40;13.30;;;;;;;;;;4950593;28;20049;-80
2023/01/21 14:28:23;;;;;;;24.13;13.60;;;;;;;;;;4995439;28;20054;-80
2023/01/21 14:31:01;;;;;;;23.88;14.02;;;;;;;;;;4980388;28;20129;-80
2023/01/21 14:33:43;;;;;;;24.10;14.13;;;;;;;;;;4993023;28;20069;-80
2023/01/21 14:36:12;;;;;;;24.98;15.05;;;;;;;;;;4947740;28;20049;-79
2023/01/21 14:39:10;;;;;;;25.33;14.85;;;;;;;;;;5002738;28;20056;-80
2023/01/21 14:42:02;;;;;;;23.50;14.63;;;;;;;;;;4995702;28;20090;-79
2023/01/21 14:44:39;;;;;;;28.42;15.90;;;;;;;;;;4969107;28;20524;-79
2023/01/21 14:47:21;;;;;;;24.35;14.93;;;;;;;;;;4961886;28;20481;-79
2023/01/21 14:49:52;;;;;;;24.15;14.82;;;;;;;;;;4976947;28;20706;-80
2023/01/21 14:52:26;;;;;;;28.73;14.80;;;;;;;;;;4939020;28;20080;-80
2023/01/21 14:54:53;;;;;;;25.55;14.00;;;;;;;;;;4942525;28;20059;-80
2023/01/21 14:57:24;;;;;;;24.38;14.70;;;;;;;;;;4969883;28;20060;-81